Portada
METAR-TAF:

METAR-TAF

Aeroports :

Olsztyn-Mazury

Olsztyn, Polònia

latitud: 53-28-55N, longitud: 20-56-16E, altitud: 141 m

Observació

L'informe es va fer fa 40 minuts, a les 14:00 UTC
Vent 9 kt del Est/Sud-Est, variant entre Est i Sud
Temperatura 30°C
Humitat 35%
Pressió 1019 hPa
Visibilitat 10 km o més
sense núvols per sota de 1500 mi sense presència de cumulonimbus.

METAR: EPSY 181400Z 12009KT 080V170 CAVOK 30/13 Q1019

Hora: 16:40 (14:40 UTC)

Pronòstic

L'informe es va fer fa 10 minuts, a les 14:30 UTC
Pronòstic vàlid del 18 a les 15 UTC al 18 a les 24 UTC
Vent 10 kt del Sud/Sud-Est
Visibilitat 10 km o més
sense núvols per sota de 1500 mi sense presència de cumulonimbus.

TAF: EPSY 181430Z 1815/1824 15010KT CAVOK

Observacions i pronòstics meteorològics de més de 4000 aeroports (METAR i TAF).

Les estacions disponibles són els punts grocs i vermells al mapa.

Posi el ratolí al punt desitjat per veure el nom de l'estació.

Feu clic per veure les observacions i els pronòstics meteorològics.

Per canviar el mapa: feu clic els botons verds amb una creu de color negre per apropar; al botó verd amb un guió per allunyar la imatge; o en les fletxes verdes per a mapes adjacents.


METAR-TAF: